createdAt,value
2018-08-11T00:00:29.265Z,60.03
2018-08-11T00:03:01.071Z,59.46
2018-08-11T00:05:33.562Z,59.79
2018-08-11T00:08:05.757Z,60.67
2018-08-11T00:10:37.569Z,60.86
2018-08-11T00:13:09.424Z,60.11
2018-08-11T00:15:41.296Z,60.43
2018-08-11T00:18:13.769Z,60.96
2018-08-11T00:20:45.567Z,61.29
2018-08-11T00:23:17.640Z,60.28
2018-08-11T00:25:49.270Z,60.17
2018-08-11T00:28:22.680Z,60.47
2018-08-11T00:30:54.627Z,60.16
2018-08-11T00:33:26.354Z,59.23
2018-08-11T00:35:58.188Z,60.13
2018-08-11T00:38:30.348Z,60.19
2018-08-11T00:41:02.294Z,60.32
2018-08-11T00:43:34.003Z,59.47
2018-08-11T00:46:06.370Z,59.03
2018-08-11T00:48:38.533Z,60.50
2018-08-11T00:51:10.686Z,59.38
2018-08-11T00:53:42.715Z,59.70
2018-08-11T00:56:14.529Z,59.49
2018-08-11T00:58:47.803Z,60.50
2018-08-11T01:01:19.928Z,60.61
2018-08-11T01:03:51.726Z,59.42
2018-08-11T01:06:23.547Z,58.79
2018-08-11T01:08:55.644Z,59.54
2018-08-11T01:11:27.673Z,60.32
2018-08-11T01:13:59.583Z,60.91
2018-08-11T01:16:31.260Z,60.83
2018-08-11T01:19:03.153Z,60.04
2018-08-11T01:21:35.239Z,61.88
2018-08-11T01:24:07.143Z,61.16
2018-08-11T01:26:38.950Z,61.65
2018-08-11T01:29:10.738Z,61.49
2018-08-11T01:31:42.582Z,62.39
2018-08-11T01:34:15.199Z,60.29
2018-08-11T01:36:46.679Z,61.13
2018-08-11T01:39:18.622Z,61.01
2018-08-11T01:41:50.886Z,61.73
2018-08-11T01:44:22.731Z,61.03
2018-08-11T01:46:55.284Z,61.94
2018-08-11T01:49:28.392Z,61.88
2018-08-11T01:52:00.228Z,62.11
2018-08-11T01:54:31.937Z,61.98
2018-08-11T01:57:03.788Z,61.50
2018-08-11T01:59:36.407Z,60.42
2018-08-11T02:02:08.699Z,60.70
2018-08-11T02:04:40.947Z,60.57
2018-08-11T02:07:13.297Z,59.75
2018-08-11T02:09:45.133Z,59.89
2018-08-11T02:12:16.902Z,61.16
2018-08-11T02:14:48.525Z,59.22
2018-08-11T02:17:20.225Z,61.01
2018-08-11T02:19:51.952Z,60.24
2018-08-11T02:22:23.851Z,60.19
2018-08-11T02:24:56.145Z,59.68
2018-08-11T02:27:28.544Z,60.04
2018-08-11T02:30:00.349Z,58.89
2018-08-11T02:32:32.160Z,59.30
2018-08-11T02:35:04.688Z,60.53
2018-08-11T02:37:36.286Z,61.28
2018-08-11T02:40:09.878Z,58.60
2018-08-11T02:42:41.730Z,58.71
2018-08-11T02:45:15.284Z,60.61
2018-08-11T02:47:48.031Z,59.61
2018-08-11T02:50:19.992Z,60.22
2018-08-11T02:52:51.818Z,61.09
2018-08-11T02:55:23.593Z,59.92
2018-08-11T02:57:55.617Z,61.01
2018-08-11T03:00:27.476Z,60.50
2018-08-11T03:02:59.192Z,61.61
2018-08-11T03:05:31.074Z,61.48
2018-08-11T03:08:02.783Z,61.12
2018-08-11T03:10:34.603Z,61.13
2018-08-11T03:13:06.878Z,62.06
2018-08-11T03:15:38.709Z,61.08
2018-08-11T03:18:10.360Z,62.13
2018-08-11T03:20:42.189Z,60.99
2018-08-11T03:23:13.928Z,62.05
2018-08-11T03:25:45.511Z,61.29
2018-08-11T03:28:17.091Z,60.43
2018-08-11T03:30:48.853Z,60.64
2018-08-11T03:33:20.498Z,59.65
2018-08-11T03:35:52.409Z,64.49
2018-08-11T03:38:26.290Z,68.18
2018-08-11T03:40:59.545Z,68.32
2018-08-11T03:43:31.241Z,67.69
2018-08-11T03:46:03.914Z,70.00
2018-08-11T03:48:36.012Z,69.65
2018-08-11T03:51:08.136Z,68.47
2018-08-11T03:53:39.830Z,68.27
2018-08-11T03:56:12.862Z,67.02
2018-08-11T03:58:45.661Z,67.12
2018-08-11T04:01:17.555Z,67.80
2018-08-11T04:03:49.567Z,67.41
2018-08-11T04:06:23.779Z,67.67
2018-08-11T04:08:55.659Z,67.27
2018-08-11T04:11:27.304Z,66.69
2018-08-11T04:13:58.991Z,67.34
2018-08-11T04:16:31.219Z,68.14
2018-08-11T04:19:03.060Z,68.34
2018-08-11T04:21:35.247Z,68.85
2018-08-11T04:24:07.269Z,68.99
2018-08-11T04:26:39.222Z,67.66
2018-08-11T04:29:11.101Z,67.11
2018-08-11T04:31:42.982Z,65.62
2018-08-11T04:34:15.405Z,65.87
2018-08-11T04:36:47.430Z,65.19
2018-08-11T04:39:19.137Z,65.54
2018-08-11T04:41:51.360Z,64.78
2018-08-11T04:44:23.317Z,61.76
2018-08-11T04:46:56.370Z,55.95
2018-08-11T04:49:52.737Z,60.11
2018-08-11T04:52:24.795Z,58.84
2018-08-11T04:56:13.493Z,59.56
2018-08-11T04:59:01.803Z,59.14
2018-08-11T05:01:33.553Z,59.50
2018-08-11T05:04:05.426Z,60.05
2018-08-11T05:06:37.817Z,60.05
2018-08-11T05:09:10.473Z,60.81
2018-08-11T05:11:41.920Z,63.18
2018-08-11T05:14:13.855Z,64.16
2018-08-11T05:16:45.322Z,63.06
2018-08-11T05:19:17.312Z,63.24
2018-08-11T05:21:48.808Z,63.02
2018-08-11T05:24:20.720Z,62.95
2018-08-11T05:26:52.891Z,63.01
2018-08-11T05:29:24.628Z,63.11
2018-08-11T05:31:56.414Z,62.60
2018-08-11T05:34:28.302Z,63.13
2018-08-11T05:37:00.272Z,62.97
2018-08-11T05:39:31.997Z,63.14
2018-08-11T05:42:03.735Z,63.26
2018-08-11T05:44:35.558Z,62.73
2018-08-11T05:47:07.387Z,62.14
2018-08-11T05:49:39.183Z,60.10
2018-08-11T05:52:11.323Z,59.62
2018-08-11T05:54:43.239Z,61.73
2018-08-11T05:57:15.018Z,61.75
2018-08-11T05:59:46.661Z,62.15
2018-08-11T06:02:18.541Z,62.65
2018-08-11T06:04:50.543Z,61.61
2018-08-11T06:07:22.365Z,61.83
2018-08-11T06:09:54.598Z,62.58
2018-08-11T06:12:26.765Z,62.55
2018-08-11T06:14:58.964Z,62.01
2018-08-11T06:17:30.867Z,61.81
2018-08-11T06:20:02.779Z,61.60
2018-08-11T06:22:34.626Z,62.78
2018-08-11T06:25:07.147Z,62.82
2018-08-11T06:27:39.185Z,62.00
2018-08-11T06:30:12.102Z,62.76
2018-08-11T06:32:44.335Z,61.57
2018-08-11T06:35:16.483Z,62.94
2018-08-11T06:37:48.633Z,62.21
2018-08-11T06:40:20.470Z,62.35
2018-08-11T06:42:52.354Z,63.39
2018-08-11T06:45:24.236Z,62.57
2018-08-11T06:47:55.934Z,61.80
2018-08-11T06:50:27.905Z,61.32
2018-08-11T06:53:00.369Z,61.70
2018-08-11T06:55:32.537Z,62.57
2018-08-11T06:58:04.889Z,61.84
2018-08-11T07:00:36.728Z,62.31
2018-08-11T07:03:08.687Z,60.55
2018-08-11T07:05:40.648Z,60.59
2018-08-11T07:08:12.406Z,61.03
2018-08-11T07:10:44.388Z,60.30
2018-08-11T07:13:16.142Z,61.90
2018-08-11T07:15:48.230Z,62.03
2018-08-11T07:18:20.551Z,62.16
2018-08-11T07:20:53.389Z,62.88
2018-08-11T07:23:25.066Z,61.84
2018-08-11T07:25:57.216Z,61.95
2018-08-11T07:28:28.873Z,62.22
2018-08-11T07:31:00.884Z,62.64
2018-08-11T07:33:32.942Z,62.48
2018-08-11T07:36:05.394Z,62.43
2018-08-11T07:38:37.503Z,61.65
2018-08-11T07:41:15.445Z,61.78
2018-08-11T07:43:47.110Z,61.52
2018-08-11T07:46:19.051Z,62.08
2018-08-11T07:48:51.036Z,62.36
2018-08-11T07:51:22.875Z,61.49
2018-08-11T07:53:54.282Z,62.17
2018-08-11T07:56:26.278Z,62.27
2018-08-11T07:58:58.009Z,62.10
2018-08-11T08:01:31.211Z,61.63
2018-08-11T08:04:02.867Z,61.92
2018-08-11T08:06:34.625Z,62.52
2018-08-11T08:09:09.478Z,62.92
2018-08-11T08:11:41.655Z,62.00
2018-08-11T08:14:13.954Z,62.71
2018-08-11T08:16:45.757Z,62.17
2018-08-11T08:19:17.498Z,62.78
2018-08-11T08:21:49.377Z,62.03
2018-08-11T08:24:20.981Z,62.62
2018-08-11T08:26:53.185Z,61.62
2018-08-11T08:29:25.700Z,62.93
2018-08-11T08:31:57.473Z,62.90
2018-08-11T08:34:29.348Z,62.05
2018-08-11T08:37:01.342Z,62.38
2018-08-11T08:39:33.173Z,61.91
2018-08-11T08:42:05.506Z,62.36
2018-08-11T08:44:37.305Z,62.78
2018-08-11T08:47:09.001Z,63.45
2018-08-11T08:49:40.999Z,62.56
2018-08-11T08:52:13.786Z,62.71
2018-08-11T08:54:45.722Z,63.01
2018-08-11T08:57:18.862Z,62.03
2018-08-11T08:59:52.418Z,61.91
2018-08-11T09:02:24.308Z,61.80
2018-08-11T09:04:56.473Z,61.67
2018-08-11T09:07:32.347Z,62.64
2018-08-11T09:10:05.826Z,61.75
2018-08-11T09:12:41.438Z,61.66
2018-08-11T09:15:15.573Z,62.13
2018-08-11T09:17:47.703Z,61.77
2018-08-11T09:20:20.956Z,61.53
2018-08-11T09:22:53.560Z,61.64
2018-08-11T09:25:25.686Z,62.43
2018-08-11T09:27:57.745Z,62.39
2018-08-11T09:30:31.091Z,61.82
2018-08-11T09:33:03.379Z,61.75
2018-08-11T09:35:35.582Z,61.24
2018-08-11T09:38:07.728Z,61.46
2018-08-11T09:40:39.645Z,61.98
2018-08-11T09:43:11.357Z,62.01
2018-08-11T09:45:43.321Z,61.94
2018-08-11T09:48:15.182Z,61.94
2018-08-11T09:50:50.881Z,61.18
2018-08-11T09:53:24.558Z,60.83
2018-08-11T09:55:57.564Z,61.89
2018-08-11T09:58:29.663Z,61.09
2018-08-11T10:01:05.643Z,61.58
2018-08-11T10:03:40.240Z,61.69
2018-08-11T10:06:16.467Z,61.18
2018-08-11T10:08:54.086Z,61.81
2018-08-11T10:11:26.035Z,61.03
2018-08-11T10:13:59.253Z,61.19
2018-08-11T10:16:31.410Z,62.09
2018-08-11T10:19:07.807Z,61.74
2018-08-11T10:21:39.651Z,62.04
2018-08-11T10:24:13.788Z,61.39
2018-08-11T10:26:49.222Z,61.89
2018-08-11T10:29:23.004Z,61.13
2018-08-11T10:31:55.410Z,60.92
2018-08-11T10:34:27.234Z,60.56
2018-08-11T10:37:03.205Z,61.06
2018-08-11T10:39:35.706Z,61.09
2018-08-11T10:42:11.702Z,61.20
2018-08-11T10:44:44.960Z,61.09
2018-08-11T10:47:17.809Z,61.46
2018-08-11T10:49:50.274Z,61.45
2018-08-11T10:52:23.342Z,61.57
2018-08-11T10:54:55.264Z,61.25
2018-08-11T10:57:27.486Z,60.97
2018-08-11T10:59:59.038Z,60.48
2018-08-11T11:02:30.921Z,61.01
2018-08-11T11:05:03.403Z,60.46
2018-08-11T11:07:35.501Z,61.07
2018-08-11T11:10:07.820Z,60.19
2018-08-11T11:12:39.397Z,59.33
2018-08-11T11:15:11.366Z,58.78
2018-08-11T11:17:43.116Z,58.69
2018-08-11T11:20:15.011Z,58.00
2018-08-11T11:22:47.816Z,59.50
2018-08-11T11:25:19.510Z,59.31
2018-08-11T11:27:51.239Z,59.33
2018-08-11T11:30:23.338Z,59.08
2018-08-11T11:32:55.131Z,58.71
2018-08-11T11:35:26.990Z,58.53
2018-08-11T11:37:58.975Z,58.74
2018-08-11T11:40:32.141Z,59.11
2018-08-11T11:43:03.853Z,58.27
2018-08-11T11:45:35.791Z,59.00
2018-08-11T11:48:07.556Z,59.00
2018-08-11T11:50:39.283Z,59.32
2018-08-11T11:53:12.023Z,57.70
2018-08-11T11:55:44.168Z,57.10
2018-08-11T11:58:17.412Z,57.53
2018-08-11T12:00:50.903Z,59.11
2018-08-11T12:03:24.433Z,58.58
2018-08-11T12:05:56.969Z,58.46
2018-08-11T12:08:30.294Z,55.42
2018-08-11T12:11:02.321Z,55.16
2018-08-11T12:13:34.999Z,56.08
2018-08-11T12:16:06.802Z,55.85
2018-08-11T12:18:39.134Z,57.71
2018-08-11T12:21:11.115Z,58.86
2018-08-11T12:23:42.974Z,58.95
2018-08-11T12:26:16.740Z,57.91
2018-08-11T12:28:48.990Z,57.35
2018-08-11T12:31:20.817Z,56.57
2018-08-11T12:33:52.839Z,59.08
2018-08-11T12:36:25.030Z,58.45
2018-08-11T12:38:56.759Z,57.85
2018-08-11T12:41:29.163Z,57.94
2018-08-11T12:44:01.020Z,58.28
2018-08-11T12:46:32.547Z,54.18
2018-08-11T12:49:05.011Z,56.59
2018-08-11T12:51:37.492Z,57.36
2018-08-11T12:54:09.627Z,58.55
2018-08-11T12:56:41.239Z,58.38
2018-08-11T12:59:13.212Z,58.27
2018-08-11T13:01:46.286Z,58.49
2018-08-11T13:04:17.764Z,58.92
2018-08-11T13:06:49.633Z,59.01
2018-08-11T13:09:21.614Z,59.41
2018-08-11T13:11:53.583Z,58.77
2018-08-11T13:14:25.412Z,60.78
2018-08-11T13:16:57.334Z,60.83
2018-08-11T13:19:29.228Z,60.49
2018-08-11T13:22:01.170Z,58.77
2018-08-11T13:24:33.456Z,57.74
2018-08-11T13:27:04.931Z,58.63
2018-08-11T13:29:36.634Z,58.76
2018-08-11T13:32:08.613Z,58.96
2018-08-11T13:34:40.432Z,59.31
2018-08-11T13:37:12.254Z,60.04
2018-08-11T13:39:48.071Z,60.18
2018-08-11T13:42:20.363Z,59.56
2018-08-11T13:44:52.361Z,60.02
2018-08-11T13:47:24.096Z,59.19
2018-08-11T13:49:55.559Z,59.98
2018-08-11T13:52:27.503Z,59.83
2018-08-11T13:54:59.324Z,58.96
2018-08-11T13:57:31.165Z,59.76
2018-08-11T14:00:02.763Z,58.76
2018-08-11T14:02:34.637Z,60.16
2018-08-11T14:05:06.217Z,60.54
2018-08-11T14:07:38.508Z,59.57
2018-08-11T14:10:11.797Z,59.54
2018-08-11T14:12:44.326Z,59.26
2018-08-11T14:15:15.805Z,59.49
2018-08-11T14:17:47.672Z,60.54
2018-08-11T14:20:19.802Z,59.41
2018-08-11T14:22:51.556Z,60.52
2018-08-11T14:25:24.328Z,59.32
2018-08-11T14:27:56.243Z,59.35
2018-08-11T14:30:28.987Z,59.62
2018-08-11T14:33:00.704Z,60.59
2018-08-11T14:35:32.312Z,59.73
2018-08-11T14:38:04.003Z,60.52
2018-08-11T14:40:35.636Z,59.31
2018-08-11T14:43:08.663Z,59.53
2018-08-11T14:45:40.955Z,60.39
2018-08-11T14:48:12.614Z,59.48
2018-08-11T14:50:44.481Z,59.83
2018-08-11T14:53:16.110Z,60.36
2018-08-11T14:55:51.257Z,60.06
2018-08-11T14:58:23.014Z,59.58
2018-08-11T15:00:54.741Z,55.70
2018-08-11T15:03:27.177Z,57.69
2018-08-11T15:05:59.327Z,59.61
2018-08-11T15:08:31.633Z,59.46
2018-08-11T15:11:03.515Z,57.36
2018-08-11T15:13:37.575Z,58.49
2018-08-11T15:16:09.575Z,58.76
2018-08-11T15:18:42.229Z,60.10
2018-08-11T15:21:13.899Z,59.25
2018-08-11T15:23:46.046Z,60.14
2018-08-11T15:26:17.550Z,60.29
2018-08-11T15:28:49.698Z,60.11
2018-08-11T15:31:21.347Z,59.58
2018-08-11T15:33:53.303Z,59.57
2018-08-11T15:36:25.027Z,57.64
2018-08-11T15:38:56.794Z,58.45
2018-08-11T15:41:28.313Z,58.19
2018-08-11T15:44:00.180Z,56.80
2018-08-11T15:46:32.314Z,57.97
2018-08-11T15:49:06.326Z,57.87
2018-08-11T15:51:38.781Z,56.13
2018-08-11T15:54:21.526Z,56.70
2018-08-11T15:56:57.058Z,56.59
2018-08-11T15:59:31.271Z,56.16
2018-08-11T16:02:05.530Z,56.42
2018-08-11T16:04:37.685Z,56.02
2018-08-11T16:07:13.573Z,55.87
2018-08-11T16:09:54.393Z,55.09
2018-08-11T16:12:34.497Z,55.17
2018-08-11T16:27:41.505Z,53.52
2018-08-11T16:30:14.149Z,54.41
2018-08-11T16:32:45.805Z,54.65
2018-08-11T16:35:17.455Z,53.95
2018-08-11T16:37:49.096Z,54.75
2018-08-11T16:40:20.814Z,54.03
2018-08-11T16:42:53.671Z,54.01
2018-08-11T16:45:25.096Z,53.18
2018-08-11T16:47:56.998Z,53.44
2018-08-11T16:50:31.012Z,53.66
2018-08-11T16:53:02.799Z,54.04
2018-08-11T16:55:34.209Z,55.61
2018-08-11T16:58:05.921Z,54.05
2018-08-11T17:00:37.505Z,51.15
2018-08-11T17:03:09.182Z,52.68
2018-08-11T17:05:40.726Z,53.94
2018-08-11T17:08:12.541Z,53.70
2018-08-11T17:10:43.886Z,53.51
2018-08-11T17:13:15.611Z,52.57
2018-08-11T17:15:47.657Z,53.37
2018-08-11T17:18:19.294Z,44.56
2018-08-11T17:20:51.003Z,47.03
2018-08-11T17:23:22.858Z,47.89
2018-08-11T17:25:54.529Z,48.91
2018-08-11T17:28:26.373Z,49.21
2018-08-11T17:30:58.020Z,49.14
2018-08-11T17:33:29.865Z,49.45
2018-08-11T17:36:01.546Z,50.46
2018-08-11T17:38:33.478Z,51.55
2018-08-11T17:41:04.939Z,51.33
2018-08-11T17:43:36.450Z,52.02
2018-08-11T17:46:08.166Z,52.41
2018-08-11T17:48:39.749Z,50.75
2018-08-11T17:51:11.464Z,51.98
2018-08-11T17:53:43.337Z,50.16
2018-08-11T17:56:15.025Z,50.72
2018-08-11T17:58:46.880Z,53.03
2018-08-11T18:01:18.491Z,53.15
2018-08-11T18:03:50.405Z,52.06
2018-08-11T18:06:22.939Z,52.28
2018-08-11T18:08:54.663Z,53.04
2018-08-11T18:11:26.349Z,53.04
2018-08-11T18:13:58.194Z,53.22
2018-08-11T18:16:30.690Z,52.15
2018-08-11T18:19:02.506Z,52.93
2018-08-11T18:21:34.240Z,53.78
2018-08-11T18:24:06.013Z,53.97
2018-08-11T18:26:37.766Z,53.19
2018-08-11T18:29:09.819Z,52.42
2018-08-11T18:31:41.474Z,54.10
2018-08-11T18:34:13.300Z,52.85
2018-08-11T18:36:44.951Z,52.92
2018-08-11T18:39:16.828Z,53.78
2018-08-11T18:41:48.408Z,52.06
2018-08-11T18:44:20.142Z,52.06
2018-08-11T18:46:51.768Z,53.43
2018-08-11T18:49:23.590Z,54.14
2018-08-11T18:51:55.300Z,55.06
2018-08-11T18:54:27.132Z,55.26
2018-08-11T18:56:58.866Z,50.31
2018-08-11T18:59:30.575Z,51.12
2018-08-11T19:02:02.264Z,51.11
2018-08-11T19:04:33.944Z,51.52
2018-08-11T19:07:05.618Z,52.29
2018-08-11T19:09:37.521Z,53.31
2018-08-11T19:12:09.159Z,52.81
2018-08-11T19:14:41.063Z,54.10
2018-08-11T19:17:12.815Z,54.25
2018-08-11T19:19:44.270Z,55.13
2018-08-11T19:22:15.908Z,54.93
2018-08-11T19:24:47.628Z,55.25
2018-08-11T19:27:19.969Z,55.04
2018-08-11T19:29:51.794Z,55.61
2018-08-11T19:32:23.445Z,55.80
2018-08-11T19:34:55.332Z,54.28
2018-08-11T19:37:27.071Z,54.20
2018-08-11T19:39:58.649Z,54.46
2018-08-11T19:42:30.703Z,56.08
2018-08-11T19:45:02.471Z,54.44
2018-08-11T19:47:34.136Z,54.23
2018-08-11T19:50:06.682Z,54.54
2018-08-11T19:52:38.266Z,55.72
2018-08-11T19:55:10.462Z,54.46
2018-08-11T19:57:42.222Z,54.85
2018-08-11T20:00:15.468Z,53.85
2018-08-11T20:02:47.077Z,54.26
2018-08-11T20:05:19.376Z,55.71
2018-08-11T20:07:51.174Z,53.66
2018-08-11T20:10:22.969Z,53.66
2018-08-11T20:12:54.377Z,53.62
2018-08-11T20:15:26.194Z,53.62
2018-08-11T20:17:57.837Z,53.62
2018-08-11T20:20:29.751Z,54.99
2018-08-11T20:23:01.645Z,54.61
2018-08-11T20:25:33.601Z,54.87
2018-08-11T20:28:05.166Z,55.79
2018-08-11T20:30:37.031Z,55.24
2018-08-11T20:33:09.362Z,56.06
2018-08-11T20:35:41.093Z,56.17
2018-08-11T20:38:13.027Z,55.62
2018-08-11T20:40:44.831Z,55.00
2018-08-11T20:43:16.517Z,56.49
2018-08-11T20:45:48.592Z,55.24
2018-08-11T20:48:20.021Z,54.90
2018-08-11T20:50:51.967Z,56.07
2018-08-11T20:53:23.499Z,55.00
2018-08-11T20:55:55.238Z,55.63
2018-08-11T20:58:26.885Z,54.93
2018-08-11T21:00:58.887Z,55.27
2018-08-11T21:03:30.424Z,55.94
2018-08-11T21:06:02.160Z,54.88
2018-08-11T21:08:33.644Z,54.92
2018-08-11T21:11:05.633Z,56.29
2018-08-11T21:13:37.695Z,56.96
2018-08-11T21:16:09.760Z,57.69
2018-08-11T21:18:41.338Z,57.53
2018-08-11T21:21:13.174Z,57.16
2018-08-11T21:23:44.581Z,57.73
2018-08-11T21:26:16.538Z,57.14
2018-08-11T21:28:47.887Z,57.63
2018-08-11T21:31:19.682Z,58.73
2018-08-11T21:33:51.565Z,57.21
2018-08-11T21:36:23.277Z,57.58
2018-08-11T21:38:55.025Z,57.52
2018-08-11T21:41:26.890Z,57.94
2018-08-11T21:43:58.485Z,58.62
2018-08-11T21:46:30.301Z,58.34
2018-08-11T21:49:02.104Z,58.00
2018-08-11T21:51:34.141Z,56.88
2018-08-11T21:54:06.134Z,57.80
2018-08-11T21:56:38.108Z,58.23
2018-08-11T21:59:09.876Z,58.44
2018-08-11T22:01:41.845Z,58.23
2018-08-11T22:04:13.970Z,57.58
2018-08-11T22:06:45.987Z,58.39
2018-08-11T22:09:17.531Z,57.20
2018-08-11T22:11:49.390Z,57.96
2018-08-11T22:14:20.874Z,57.33
2018-08-11T22:16:52.746Z,58.14
2018-08-11T22:19:24.317Z,57.35
2018-08-11T22:21:57.130Z,57.05
2018-08-11T22:24:29.079Z,56.73
2018-08-11T22:27:00.991Z,57.05
2018-08-11T22:29:32.814Z,56.47
2018-08-11T22:32:04.650Z,57.16
2018-08-11T22:34:36.250Z,56.80
2018-08-11T22:37:07.988Z,55.31
2018-08-11T22:39:39.679Z,56.06
2018-08-11T22:42:11.457Z,55.15
2018-08-11T22:44:43.193Z,54.53
2018-08-11T22:47:14.985Z,56.76
2018-08-11T22:49:46.798Z,54.85
2018-08-11T22:52:18.709Z,54.68
2018-08-11T22:54:50.451Z,55.40
2018-08-11T22:57:22.290Z,55.01
2018-08-11T22:59:54.006Z,54.73
2018-08-11T23:02:25.518Z,56.21
2018-08-11T23:04:57.244Z,54.75
2018-08-11T23:07:29.016Z,57.04
2018-08-11T23:10:00.626Z,56.07
2018-08-11T23:12:32.575Z,56.28
2018-08-11T23:15:04.423Z,56.37
2018-08-11T23:17:36.320Z,55.47
2018-08-11T23:20:08.492Z,55.43
2018-08-11T23:22:40.600Z,55.63
2018-08-11T23:25:12.411Z,54.73
2018-08-11T23:27:44.406Z,55.33
2018-08-11T23:30:18.266Z,55.54
2018-08-11T23:32:49.988Z,55.76
2018-08-11T23:35:21.795Z,54.58
2018-08-11T23:37:53.657Z,53.82
2018-08-11T23:40:25.105Z,53.56
2018-08-11T23:42:57.097Z,54.20
2018-08-11T23:45:28.709Z,54.23
2018-08-11T23:48:00.601Z,54.62
2018-08-11T23:50:32.581Z,55.66
2018-08-11T23:53:04.358Z,54.87
2018-08-11T23:55:35.988Z,53.81
2018-08-11T23:58:07.933Z,55.02
